sensor_id;sensor_type;location;lat;lon;timestamp;pressure;altitude;pressure_sealevel;temperature;humidity
48216;BME280;34005;48.844;10.098;2023-03-25T00:00:04;96080.09;;;11.20;64.30
48216;BME280;34005;48.844;10.098;2023-03-25T00:02:38;96069.44;;;11.15;65.17
48216;BME280;34005;48.844;10.098;2023-03-25T00:05:08;96061.19;;;11.11;65.46
48216;BME280;34005;48.844;10.098;2023-03-25T00:07:36;96052.75;;;11.09;65.72
48216;BME280;34005;48.844;10.098;2023-03-25T00:10:04;96059.78;;;11.09;65.41
48216;BME280;34005;48.844;10.098;2023-03-25T00:12:32;96066.59;;;11.10;67.69
48216;BME280;34005;48.844;10.098;2023-03-25T00:14:59;96054.34;;;11.10;67.20
48216;BME280;34005;48.844;10.098;2023-03-25T00:17:28;96047.34;;;11.04;65.94
48216;BME280;34005;48.844;10.098;2023-03-25T00:19:57;96063.56;;;11.00;66.04
48216;BME280;34005;48.844;10.098;2023-03-25T00:22:27;96060.13;;;10.92;66.20
48216;BME280;34005;48.844;10.098;2023-03-25T00:24:54;96059.75;;;10.89;66.80
48216;BME280;34005;48.844;10.098;2023-03-25T00:27:22;96046.88;;;10.87;66.21
48216;BME280;34005;48.844;10.098;2023-03-25T00:29:49;96046.69;;;10.89;67.59
48216;BME280;34005;48.844;10.098;2023-03-25T00:32:17;96063.34;;;10.95;67.70
48216;BME280;34005;48.844;10.098;2023-03-25T00:34:46;96049.94;;;10.98;67.43
48216;BME280;34005;48.844;10.098;2023-03-25T00:37:15;96060.16;;;10.99;69.01
48216;BME280;34005;48.844;10.098;2023-03-25T00:39:44;96067.00;;;11.00;68.13
48216;BME280;34005;48.844;10.098;2023-03-25T00:42:14;96075.81;;;10.99;67.95
48216;BME280;34005;48.844;10.098;2023-03-25T00:44:42;96060.94;;;11.00;68.01
48216;BME280;34005;48.844;10.098;2023-03-25T00:47:09;96056.56;;;11.00;68.06
48216;BME280;34005;48.844;10.098;2023-03-25T00:49:43;96069.59;;;11.00;67.56
48216;BME280;34005;48.844;10.098;2023-03-25T00:52:11;96069.00;;;10.98;67.16
48216;BME280;34005;48.844;10.098;2023-03-25T00:54:39;96092.84;;;10.95;67.38
48216;BME280;34005;48.844;10.098;2023-03-25T00:57:08;96099.88;;;10.88;67.13
48216;BME280;34005;48.844;10.098;2023-03-25T00:59:36;96099.81;;;10.75;68.21
48216;BME280;34005;48.844;10.098;2023-03-25T01:02:03;96102.41;;;10.68;67.99
48216;BME280;34005;48.844;10.098;2023-03-25T01:04:32;96090.13;;;10.62;68.43
48216;BME280;34005;48.844;10.098;2023-03-25T01:07:00;96077.06;;;10.55;68.29
48216;BME280;34005;48.844;10.098;2023-03-25T01:09:29;96067.03;;;10.52;68.30
48216;BME280;34005;48.844;10.098;2023-03-25T01:11:56;96047.16;;;10.51;68.64
48216;BME280;34005;48.844;10.098;2023-03-25T01:14:25;96047.94;;;10.45;67.75
48216;BME280;34005;48.844;10.098;2023-03-25T01:16:54;96044.72;;;10.43;68.69
48216;BME280;34005;48.844;10.098;2023-03-25T01:19:22;96045.91;;;10.40;67.87
48216;BME280;34005;48.844;10.098;2023-03-25T01:21:49;96034.88;;;10.38;67.95
48216;BME280;34005;48.844;10.098;2023-03-25T01:24:17;96035.06;;;10.37;69.08
48216;BME280;34005;48.844;10.098;2023-03-25T01:26:45;96034.47;;;10.35;68.96
48216;BME280;34005;48.844;10.098;2023-03-25T01:29:14;96036.47;;;10.33;67.62
48216;BME280;34005;48.844;10.098;2023-03-25T01:31:44;96030.00;;;10.28;69.35
48216;BME280;34005;48.844;10.098;2023-03-25T01:34:12;96029.38;;;10.26;67.80
48216;BME280;34005;48.844;10.098;2023-03-25T01:36:40;96028.94;;;10.23;68.66
48216;BME280;34005;48.844;10.098;2023-03-25T01:39:13;96035.75;;;10.17;67.10
48216;BME280;34005;48.844;10.098;2023-03-25T01:41:43;96020.88;;;10.11;68.20
48216;BME280;34005;48.844;10.098;2023-03-25T01:47:24;96015.81;;;10.03;70.14
48216;BME280;34005;48.844;10.098;2023-03-25T01:49:52;96015.47;;;10.06;70.50
48216;BME280;34005;48.844;10.098;2023-03-25T01:52:23;96008.44;;;10.06;69.60
48216;BME280;34005;48.844;10.098;2023-03-25T01:54:52;96004.81;;;10.07;67.59
48216;BME280;34005;48.844;10.098;2023-03-25T01:57:23;95998.81;;;10.07;68.67
48216;BME280;34005;48.844;10.098;2023-03-25T01:59:52;95998.81;;;10.07;68.97
48216;BME280;34005;48.844;10.098;2023-03-25T02:02:21;95998.63;;;10.08;69.69
48216;BME280;34005;48.844;10.098;2023-03-25T02:04:55;96005.25;;;10.11;67.37
48216;BME280;34005;48.844;10.098;2023-03-25T02:07:28;95997.00;;;10.07;66.31
48216;BME280;34005;48.844;10.098;2023-03-25T02:09:59;95989.78;;;10.09;67.76
48216;BME280;34005;48.844;10.098;2023-03-25T02:12:28;95983.19;;;10.07;66.40
48216;BME280;34005;48.844;10.098;2023-03-25T02:14:58;95963.94;;;10.08;68.51
48216;BME280;34005;48.844;10.098;2023-03-25T02:17:33;95985.19;;;10.11;68.05
48216;BME280;34005;48.844;10.098;2023-03-25T02:20:38;95991.81;;;10.14;65.55
48216;BME280;34005;48.844;10.098;2023-03-25T02:23:39;95993.19;;;10.10;65.22
48216;BME280;34005;48.844;10.098;2023-03-25T02:26:30;95997.59;;;10.03;64.43
48216;BME280;34005;48.844;10.098;2023-03-25T02:29:10;95991.53;;;9.96;66.22
48216;BME280;34005;48.844;10.098;2023-03-25T02:31:45;95983.91;;;9.94;66.59
48216;BME280;34005;48.844;10.098;2023-03-25T02:34:29;95984.69;;;9.95;67.85
48216;BME280;34005;48.844;10.098;2023-03-25T02:37:11;95978.66;;;9.87;66.21
48216;BME280;34005;48.844;10.098;2023-03-25T02:39:48;95980.03;;;9.83;66.34
48216;BME280;34005;48.844;10.098;2023-03-25T02:42:19;95980.03;;;9.83;66.08
48216;BME280;34005;48.844;10.098;2023-03-25T02:44:54;95977.84;;;9.80;66.14
48216;BME280;34005;48.844;10.098;2023-03-25T02:47:26;95986.06;;;9.84;66.63
48216;BME280;34005;48.844;10.098;2023-03-25T02:49:58;95977.06;;;9.86;66.97
48216;BME280;34005;48.844;10.098;2023-03-25T02:52:32;95988.28;;;9.87;67.70
48216;BME280;34005;48.844;10.098;2023-03-25T02:55:06;95987.50;;;9.86;65.51
48216;BME280;34005;48.844;10.098;2023-03-25T02:57:38;95980.66;;;9.85;64.94
48216;BME280;34005;48.844;10.098;2023-03-25T03:00:09;95990.28;;;9.85;66.23
48216;BME280;34005;48.844;10.098;2023-03-25T03:02:42;95989.47;;;9.84;66.92
48216;BME280;34005;48.844;10.098;2023-03-25T03:05:22;95987.84;;;9.83;66.87
48216;BME280;34005;48.844;10.098;2023-03-25T03:07:56;95993.63;;;9.79;64.71
48216;BME280;34005;48.844;10.098;2023-03-25T03:10:38;96004.84;;;9.79;68.07
48216;BME280;34005;48.844;10.098;2023-03-25T03:13:16;95990.66;;;9.82;65.42
48216;BME280;34005;48.844;10.098;2023-03-25T03:15:54;95986.47;;;9.87;67.10
48216;BME280;34005;48.844;10.098;2023-03-25T03:18:32;95987.09;;;9.89;64.68
48216;BME280;34005;48.844;10.098;2023-03-25T03:21:08;95982.50;;;9.92;67.06
48216;BME280;34005;48.844;10.098;2023-03-25T03:23:46;95975.09;;;9.95;66.10
48216;BME280;34005;48.844;10.098;2023-03-25T03:26:25;95984.34;;;9.98;65.46
48216;BME280;34005;48.844;10.098;2023-03-25T03:28:59;95981.72;;;9.98;64.76
48216;BME280;34005;48.844;10.098;2023-03-25T03:31:33;95971.69;;;9.95;65.17
48216;BME280;34005;48.844;10.098;2023-03-25T03:34:28;95973.66;;;9.93;65.56
48216;BME280;34005;48.844;10.098;2023-03-25T03:37:01;95978.88;;;9.93;63.76
48216;BME280;34005;48.844;10.098;2023-03-25T03:39:33;95987.88;;;9.90;64.73
48216;BME280;34005;48.844;10.098;2023-03-25T03:42:06;96000.13;;;9.89;64.02
48216;BME280;34005;48.844;10.098;2023-03-25T03:44:37;95998.09;;;9.85;62.85
48216;BME280;34005;48.844;10.098;2023-03-25T03:47:09;96016.28;;;9.78;62.83
48216;BME280;34005;48.844;10.098;2023-03-25T03:49:39;96019.66;;;9.72;63.50
48216;BME280;34005;48.844;10.098;2023-03-25T03:52:11;96016.59;;;9.68;63.24
48216;BME280;34005;48.844;10.098;2023-03-25T03:54:44;96053.28;;;9.67;64.60
48216;BME280;34005;48.844;10.098;2023-03-25T03:57:19;96044.22;;;9.63;63.27
48216;BME280;34005;48.844;10.098;2023-03-25T03:59:55;96062.81;;;9.60;62.60
48216;BME280;34005;48.844;10.098;2023-03-25T04:02:34;96055.41;;;9.57;63.25
48216;BME280;34005;48.844;10.098;2023-03-25T04:05:06;96057.78;;;9.52;63.95
48216;BME280;34005;48.844;10.098;2023-03-25T04:07:39;96072.59;;;9.51;63.68
48216;BME280;34005;48.844;10.098;2023-03-25T04:10:11;96048.91;;;9.46;63.52
48216;BME280;34005;48.844;10.098;2023-03-25T04:12:42;96044.88;;;9.43;63.92
48216;BME280;34005;48.844;10.098;2023-03-25T04:15:12;96049.84;;;9.38;62.84
48216;BME280;34005;48.844;10.098;2023-03-25T04:17:40;96055.41;;;9.35;63.37
48216;BME280;34005;48.844;10.098;2023-03-25T04:20:10;96051.94;;;9.28;62.91
48216;BME280;34005;48.844;10.098;2023-03-25T04:22:40;96056.38;;;9.27;64.13
48216;BME280;34005;48.844;10.098;2023-03-25T04:25:11;96055.53;;;9.27;63.50
48216;BME280;34005;48.844;10.098;2023-03-25T04:27:39;96059.16;;;9.26;63.08
48216;BME280;34005;48.844;10.098;2023-03-25T04:30:15;96059.16;;;9.26;62.35
48216;BME280;34005;48.844;10.098;2023-03-25T04:32:45;96077.38;;;9.26;63.03
48216;BME280;34005;48.844;10.098;2023-03-25T04:35:13;96077.38;;;9.26;62.53
48216;BME280;34005;48.844;10.098;2023-03-25T04:37:42;96065.53;;;9.23;62.07
48216;BME280;34005;48.844;10.098;2023-03-25T04:40:11;96068.31;;;9.22;63.19
48216;BME280;34005;48.844;10.098;2023-03-25T04:42:39;96067.91;;;9.18;62.53
48216;BME280;34005;48.844;10.098;2023-03-25T04:45:08;96059.47;;;9.16;62.13
48216;BME280;34005;48.844;10.098;2023-03-25T04:47:41;96062.59;;;9.12;63.11
48216;BME280;34005;48.844;10.098;2023-03-25T04:50:16;96063.78;;;9.09;63.69
48216;BME280;34005;48.844;10.098;2023-03-25T04:52:45;96068.19;;;9.08;62.93
48216;BME280;34005;48.844;10.098;2023-03-25T04:55:13;96064.59;;;9.10;62.82
48216;BME280;34005;48.844;10.098;2023-03-25T04:57:44;96067.56;;;9.06;63.65
48216;BME280;34005;48.844;10.098;2023-03-25T05:00:13;96076.53;;;9.04;65.23
48216;BME280;34005;48.844;10.098;2023-03-25T05:02:46;96077.16;;;9.06;67.59
48216;BME280;34005;48.844;10.098;2023-03-25T05:05:15;96085.78;;;9.06;65.22
48216;BME280;34005;48.844;10.098;2023-03-25T05:07:44;96081.56;;;9.05;64.07
48216;BME280;34005;48.844;10.098;2023-03-25T05:10:15;96085.94;;;9.05;63.92
48216;BME280;34005;48.844;10.098;2023-03-25T05:12:43;96080.56;;;9.06;65.93
48216;BME280;34005;48.844;10.098;2023-03-25T05:15:11;96089.38;;;9.05;65.42
48216;BME280;34005;48.844;10.098;2023-03-25T05:17:40;96081.75;;;9.04;64.93
48216;BME280;34005;48.844;10.098;2023-03-25T05:20:11;96079.72;;;8.99;63.83
48216;BME280;34005;48.844;10.098;2023-03-25T05:22:39;96077.28;;;8.98;65.31
48216;BME280;34005;48.844;10.098;2023-03-25T05:25:08;96084.28;;;8.97;64.65
48216;BME280;34005;48.844;10.098;2023-03-25T05:27:37;96087.06;;;8.96;64.93
48216;BME280;34005;48.844;10.098;2023-03-25T05:30:06;96087.84;;;8.96;65.32
48216;BME280;34005;48.844;10.098;2023-03-25T05:32:34;96088.06;;;8.95;64.25
48216;BME280;34005;48.844;10.098;2023-03-25T05:35:02;96094.88;;;8.96;65.17
48216;BME280;34005;48.844;10.098;2023-03-25T05:37:31;96101.31;;;9.00;65.39
48216;BME280;34005;48.844;10.098;2023-03-25T05:39:59;96096.91;;;9.00;64.11
48216;BME280;34005;48.844;10.098;2023-03-25T05:42:27;96100.13;;;9.02;66.00
48216;BME280;34005;48.844;10.098;2023-03-25T05:44:55;96105.00;;;9.05;65.82
48216;BME280;34005;48.844;10.098;2023-03-25T05:47:23;96109.00;;;9.08;65.30
48216;BME280;34005;48.844;10.098;2023-03-25T05:49:52;96118.19;;;9.04;63.98
48216;BME280;34005;48.844;10.098;2023-03-25T05:52:20;96115.75;;;9.02;63.84
48216;BME280;34005;48.844;10.098;2023-03-25T05:54:51;96128.75;;;9.02;65.78
48216;BME280;34005;48.844;10.098;2023-03-25T05:57:18;96121.31;;;8.99;65.19
48216;BME280;34005;48.844;10.098;2023-03-25T05:59:46;96135.13;;;9.00;64.48
48216;BME280;34005;48.844;10.098;2023-03-25T06:02:15;96125.34;;;9.02;65.51
48216;BME280;34005;48.844;10.098;2023-03-25T06:04:43;96118.97;;;9.04;64.93
48216;BME280;34005;48.844;10.098;2023-03-25T06:07:12;96118.63;;;9.07;65.10
48216;BME280;34005;48.844;10.098;2023-03-25T06:09:45;96121.03;;;9.09;64.54
48216;BME280;34005;48.844;10.098;2023-03-25T06:12:15;96115.03;;;9.08;64.51
48216;BME280;34005;48.844;10.098;2023-03-25T06:14:45;96108.22;;;9.07;64.56
48216;BME280;34005;48.844;10.098;2023-03-25T06:17:14;96109.44;;;9.12;65.61
48216;BME280;34005;48.844;10.098;2023-03-25T06:19:44;96116.09;;;9.14;65.44
48216;BME280;34005;48.844;10.098;2023-03-25T06:22:12;96118.13;;;9.19;65.29
48216;BME280;34005;48.844;10.098;2023-03-25T06:24:41;96118.75;;;9.21;63.80
48216;BME280;34005;48.844;10.098;2023-03-25T06:27:12;96110.69;;;9.16;64.99
48216;BME280;34005;48.844;10.098;2023-03-25T06:29:42;96114.91;;;9.17;64.70
48216;BME280;34005;48.844;10.098;2023-03-25T06:32:12;96120.28;;;9.15;63.16
48216;BME280;34005;48.844;10.098;2023-03-25T06:34:40;96120.13;;;9.17;65.06
48216;BME280;34005;48.844;10.098;2023-03-25T06:37:09;96135.25;;;9.28;65.06
48216;BME280;34005;48.844;10.098;2023-03-25T06:39:36;96130.91;;;9.35;63.90
48216;BME280;34005;48.844;10.098;2023-03-25T06:42:04;96133.78;;;9.40;64.34
48216;BME280;34005;48.844;10.098;2023-03-25T06:44:32;96131.41;;;9.45;64.05
48216;BME280;34005;48.844;10.098;2023-03-25T06:47:01;96134.81;;;9.46;61.83
48216;BME280;34005;48.844;10.098;2023-03-25T06:49:30;96141.44;;;9.48;62.29
48216;BME280;34005;48.844;10.098;2023-03-25T06:51:58;96149.13;;;9.57;63.43
48216;BME280;34005;48.844;10.098;2023-03-25T06:54:25;96140.75;;;9.61;61.37
48216;BME280;34005;48.844;10.098;2023-03-25T06:56:53;96128.53;;;9.62;62.26
48216;BME280;34005;48.844;10.098;2023-03-25T06:59:20;96124.38;;;9.67;61.03
48216;BME280;34005;48.844;10.098;2023-03-25T07:01:48;96134.41;;;9.70;61.82
48216;BME280;34005;48.844;10.098;2023-03-25T07:04:17;96135.88;;;9.73;60.51
48216;BME280;34005;48.844;10.098;2023-03-25T07:06:45;96133.25;;;9.73;61.09
48216;BME280;34005;48.844;10.098;2023-03-25T07:09:12;96125.81;;;9.70;60.05
48216;BME280;34005;48.844;10.098;2023-03-25T07:11:40;96138.22;;;9.68;61.23
48216;BME280;34005;48.844;10.098;2023-03-25T07:14:08;96139.41;;;9.65;60.32
48216;BME280;34005;48.844;10.098;2023-03-25T07:16:35;96132.38;;;9.66;61.85
48216;BME280;34005;48.844;10.098;2023-03-25T07:19:03;96129.66;;;9.74;62.67
48216;BME280;34005;48.844;10.098;2023-03-25T07:21:32;96130.16;;;9.84;60.87
48216;BME280;34005;48.844;10.098;2023-03-25T07:24:00;96136.16;;;9.85;61.71
48216;BME280;34005;48.844;10.098;2023-03-25T07:26:27;96131.34;;;9.82;61.38
48216;BME280;34005;48.844;10.098;2023-03-25T07:28:55;96135.31;;;9.78;61.35
48216;BME280;34005;48.844;10.098;2023-03-25T07:31:24;96150.09;;;9.77;61.60
48216;BME280;34005;48.844;10.098;2023-03-25T07:33:52;96124.56;;;9.87;61.14
48216;BME280;34005;48.844;10.098;2023-03-25T07:36:20;96147.91;;;10.02;60.02
48216;BME280;34005;48.844;10.098;2023-03-25T07:38:51;96143.63;;;10.23;60.30
48216;BME280;34005;48.844;10.098;2023-03-25T07:41:22;96128.31;;;10.35;59.56
48216;BME280;34005;48.844;10.098;2023-03-25T07:43:49;96122.56;;;10.46;60.08
48216;BME280;34005;48.844;10.098;2023-03-25T07:46:17;96123.59;;;10.58;60.24
48216;BME280;34005;48.844;10.098;2023-03-25T07:48:45;96127.50;;;10.76;58.74
48216;BME280;34005;48.844;10.098;2023-03-25T07:51:12;96117.97;;;10.96;56.87
48216;BME280;34005;48.844;10.098;2023-03-25T07:53:40;96126.06;;;11.28;56.51
48216;BME280;34005;48.844;10.098;2023-03-25T07:56:11;96124.75;;;11.79;54.34
48216;BME280;34005;48.844;10.098;2023-03-25T07:58:39;96134.28;;;12.71;52.92
48216;BME280;34005;48.844;10.098;2023-03-25T08:01:07;96125.03;;;14.09;49.27
48216;BME280;34005;48.844;10.098;2023-03-25T08:03:35;96136.78;;;14.25;49.93
48216;BME280;34005;48.844;10.098;2023-03-25T08:06:06;96135.53;;;13.84;50.71
48216;BME280;34005;48.844;10.098;2023-03-25T08:08:34;96148.72;;;13.39;51.42
48216;BME280;34005;48.844;10.098;2023-03-25T08:11:02;96133.59;;;12.96;50.34
48216;BME280;34005;48.844;10.098;2023-03-25T08:13:31;96142.97;;;12.65;53.21
48216;BME280;34005;48.844;10.098;2023-03-25T08:15:59;96162.94;;;12.40;52.78
48216;BME280;34005;48.844;10.098;2023-03-25T08:18:27;96171.22;;;12.16;54.13
48216;BME280;34005;48.844;10.098;2023-03-25T08:20:54;96166.78;;;12.04;54.79
48216;BME280;34005;48.844;10.098;2023-03-25T08:23:22;96170.00;;;12.19;54.89
48216;BME280;34005;48.844;10.098;2023-03-25T08:25:51;96165.38;;;12.21;55.13
48216;BME280;34005;48.844;10.098;2023-03-25T08:28:20;96163.75;;;13.12;54.28
48216;BME280;34005;48.844;10.098;2023-03-25T08:30:51;96160.00;;;13.39;52.70
48216;BME280;34005;48.844;10.098;2023-03-25T08:33:21;96159.97;;;13.46;52.89
48216;BME280;34005;48.844;10.098;2023-03-25T08:35:55;96150.63;;;14.14;52.17
48216;BME280;34005;48.844;10.098;2023-03-25T08:38:23;96148.63;;;14.96;49.68
48216;BME280;34005;48.844;10.098;2023-03-25T08:41:00;96153.28;;;15.43;48.14
48216;BME280;34005;48.844;10.098;2023-03-25T08:43:28;96135.63;;;17.15;45.58
48216;BME280;34005;48.844;10.098;2023-03-25T08:45:57;96141.81;;;18.85;41.23
48216;BME280;34005;48.844;10.098;2023-03-25T08:48:24;96148.25;;;19.98;39.13
48216;BME280;34005;48.844;10.098;2023-03-25T08:50:52;96139.34;;;20.94;36.79
48216;BME280;34005;48.844;10.098;2023-03-25T08:53:19;96132.94;;;21.53;36.52
48216;BME280;34005;48.844;10.098;2023-03-25T08:55:50;96145.06;;;21.28;35.98
48216;BME280;34005;48.844;10.098;2023-03-25T08:58:19;96147.13;;;19.88;37.53
48216;BME280;34005;48.844;10.098;2023-03-25T09:00:48;96128.75;;;18.39;38.64
48216;BME280;34005;48.844;10.098;2023-03-25T09:03:22;96126.97;;;17.32;42.07
48216;BME280;34005;48.844;10.098;2023-03-25T09:05:49;96124.31;;;17.03;42.55
48216;BME280;34005;48.844;10.098;2023-03-25T09:08:17;96122.69;;;17.14;43.02
48216;BME280;34005;48.844;10.098;2023-03-25T09:10:45;96129.41;;;17.21;42.26
48216;BME280;34005;48.844;10.098;2023-03-25T09:13:13;96126.72;;;17.33;42.14
48216;BME280;34005;48.844;10.098;2023-03-25T09:15:41;96116.25;;;17.67;42.10
48216;BME280;34005;48.844;10.098;2023-03-25T09:18:08;96115.25;;;17.85;42.66
48216;BME280;34005;48.844;10.098;2023-03-25T09:20:37;96114.94;;;18.15;42.12
48216;BME280;34005;48.844;10.098;2023-03-25T09:23:06;96102.13;;;18.24;41.51
48216;BME280;34005;48.844;10.098;2023-03-25T09:25:36;96108.38;;;17.84;40.53
48216;BME280;34005;48.844;10.098;2023-03-25T09:28:04;96107.06;;;17.24;41.42
48216;BME280;34005;48.844;10.098;2023-03-25T09:30:31;96111.06;;;16.74;43.00
48216;BME280;34005;48.844;10.098;2023-03-25T09:32:59;96122.13;;;16.24;43.61
48216;BME280;34005;48.844;10.098;2023-03-25T09:35:27;96129.06;;;15.83;43.45
48216;BME280;34005;48.844;10.098;2023-03-25T09:37:56;96133.50;;;15.40;45.32
48216;BME280;34005;48.844;10.098;2023-03-25T09:40:24;96120.66;;;15.02;46.64
48216;BME280;34005;48.844;10.098;2023-03-25T09:42:59;96122.22;;;14.73;47.30
48216;BME280;34005;48.844;10.098;2023-03-25T09:45:33;96128.97;;;14.43;50.40
48216;BME280;34005;48.844;10.098;2023-03-25T09:48:04;96123.16;;;14.16;50.90
48216;BME280;34005;48.844;10.098;2023-03-25T09:50:35;96129.44;;;13.90;50.87
48216;BME280;34005;48.844;10.098;2023-03-25T09:53:10;96126.16;;;13.70;52.93
48216;BME280;34005;48.844;10.098;2023-03-25T09:55:44;96132.09;;;13.58;53.73
48216;BME280;34005;48.844;10.098;2023-03-25T09:58:29;96124.13;;;13.40;53.39
48216;BME280;34005;48.844;10.098;2023-03-25T10:01:04;96122.59;;;13.26;55.68
48216;BME280;34005;48.844;10.098;2023-03-25T10:03:42;96140.13;;;13.25;56.16
48216;BME280;34005;48.844;10.098;2023-03-25T10:06:15;96132.50;;;13.17;56.83
48216;BME280;34005;48.844;10.098;2023-03-25T10:08:59;96121.09;;;12.98;56.33
48216;BME280;34005;48.844;10.098;2023-03-25T10:11:36;96118.53;;;12.85;58.48
48216;BME280;34005;48.844;10.098;2023-03-25T10:14:09;96113.53;;;12.76;58.37
48216;BME280;34005;48.844;10.098;2023-03-25T10:16:46;96100.28;;;12.71;58.22
48216;BME280;34005;48.844;10.098;2023-03-25T10:22:03;96110.72;;;12.78;57.74
48216;BME280;34005;48.844;10.098;2023-03-25T10:24:35;96104.66;;;12.84;57.13
48216;BME280;34005;48.844;10.098;2023-03-25T10:27:12;96097.41;;;12.86;57.64
48216;BME280;34005;48.844;10.098;2023-03-25T10:29:45;96104.50;;;12.79;57.97
48216;BME280;34005;48.844;10.098;2023-03-25T10:32:16;96106.94;;;12.67;57.11
48216;BME280;34005;48.844;10.098;2023-03-25T10:34:48;96100.53;;;12.56;57.41
48216;BME280;34005;48.844;10.098;2023-03-25T10:37:24;96101.59;;;12.42;58.81
48216;BME280;34005;48.844;10.098;2023-03-25T10:39:58;96095.53;;;12.42;57.98
48216;BME280;34005;48.844;10.098;2023-03-25T10:42:34;96087.41;;;12.63;59.10
48216;BME280;34005;48.844;10.098;2023-03-25T11:14:21;96043.72;;;15.67;50.53
48216;BME280;34005;48.844;10.098;2023-03-25T11:16:53;96046.28;;;15.97;48.47
48216;BME280;34005;48.844;10.098;2023-03-25T11:22:21;96031.69;;;16.54;47.30
48216;BME280;34005;48.844;10.098;2023-03-25T11:54:52;96066.53;;;15.43;46.34
48216;BME280;34005;48.844;10.098;2023-03-25T13:48:30;96062.94;;;12.44;54.25
48216;BME280;34005;48.844;10.098;2023-03-25T13:51:02;96069.38;;;12.42;56.80
48216;BME280;34005;48.844;10.098;2023-03-25T13:53:32;96063.75;;;12.45;55.12
48216;BME280;34005;48.844;10.098;2023-03-25T14:49:18;96076.91;;;12.18;54.47
48216;BME280;34005;48.844;10.098;2023-03-25T14:51:49;96063.41;;;12.21;56.15
48216;BME280;34005;48.844;10.098;2023-03-25T14:54:27;96044.91;;;12.23;56.37
48216;BME280;34005;48.844;10.098;2023-03-25T14:57:06;96059.75;;;12.22;54.57
48216;BME280;34005;48.844;10.098;2023-03-25T14:59:39;96056.16;;;12.23;55.55
48216;BME280;34005;48.844;10.098;2023-03-25T15:02:13;96071.66;;;12.25;53.29
48216;BME280;34005;48.844;10.098;2023-03-25T15:04:43;96084.91;;;12.23;54.23
48216;BME280;34005;48.844;10.098;2023-03-25T15:07:17;96087.13;;;12.20;54.85
48216;BME280;34005;48.844;10.098;2023-03-25T15:09:50;96125.38;;;12.07;54.04
48216;BME280;34005;48.844;10.098;2023-03-25T15:12:24;96116.53;;;11.88;54.48
48216;BME280;34005;48.844;10.098;2023-03-25T15:14:55;96123.72;;;11.66;55.20
48216;BME280;34005;48.844;10.098;2023-03-25T15:17:42;96113.47;;;11.51;57.83
48216;BME280;34005;48.844;10.098;2023-03-25T15:20:32;96094.78;;;11.48;55.76
48216;BME280;34005;48.844;10.098;2023-03-25T15:23:28;96095.59;;;11.48;58.35
48216;BME280;34005;48.844;10.098;2023-03-25T15:26:01;96084.34;;;11.48;59.69
48216;BME280;34005;48.844;10.098;2023-03-25T15:29:23;96079.91;;;11.48;57.14
48216;BME280;34005;48.844;10.098;2023-03-25T15:34:47;96079.50;;;11.45;57.66
48216;BME280;34005;48.844;10.098;2023-03-25T15:40:20;96075.91;;;11.52;58.07
48216;BME280;34005;48.844;10.098;2023-03-25T15:46:37;96075.69;;;11.61;57.59
48216;BME280;34005;48.844;10.098;2023-03-25T15:52:36;96075.50;;;11.55;57.92
48216;BME280;34005;48.844;10.098;2023-03-25T15:55:10;96081.53;;;11.56;56.62
48216;BME280;34005;48.844;10.098;2023-03-25T15:57:41;96071.06;;;11.56;56.15
48216;BME280;34005;48.844;10.098;2023-03-25T16:00:50;96068.69;;;11.54;59.80
48216;BME280;34005;48.844;10.098;2023-03-25T16:03:25;96072.88;;;11.55;59.44
48216;BME280;34005;48.844;10.098;2023-03-25T16:06:01;96073.50;;;11.58;57.62
48216;BME280;34005;48.844;10.098;2023-03-25T16:08:36;96072.47;;;11.59;57.61
48216;BME280;34005;48.844;10.098;2023-03-25T16:11:22;96071.47;;;11.60;58.78
48216;BME280;34005;48.844;10.098;2023-03-25T16:14:08;96064.63;;;11.59;56.75
48216;BME280;34005;48.844;10.098;2023-03-25T16:16:39;96061.22;;;11.58;57.61
48216;BME280;34005;48.844;10.098;2023-03-25T16:19:13;96064.44;;;11.53;57.05
48216;BME280;34005;48.844;10.098;2023-03-25T16:21:46;96060.25;;;11.52;55.67
48216;BME280;34005;48.844;10.098;2023-03-25T16:24:15;96050.78;;;11.51;56.75
48216;BME280;34005;48.844;10.098;2023-03-25T16:26:44;96052.78;;;11.49;57.12
48216;BME280;34005;48.844;10.098;2023-03-25T16:29:17;96052.59;;;11.51;56.29
48216;BME280;34005;48.844;10.098;2023-03-25T16:31:54;96050.16;;;11.49;54.19
48216;BME280;34005;48.844;10.098;2023-03-25T16:34:27;96047.38;;;11.44;54.47
48216;BME280;34005;48.844;10.098;2023-03-25T16:36:57;96042.16;;;11.44;55.04
48216;BME280;34005;48.844;10.098;2023-03-25T16:39:31;96045.38;;;11.46;55.17
48216;BME280;34005;48.844;10.098;2023-03-25T16:42:18;96049.97;;;11.51;56.70
48216;BME280;34005;48.844;10.098;2023-03-25T16:44:55;96050.41;;;11.54;56.54
48216;BME280;34005;48.844;10.098;2023-03-25T16:47:39;96049.19;;;11.57;54.72
48216;BME280;34005;48.844;10.098;2023-03-25T16:50:19;96050.78;;;11.58;55.69
48216;BME280;34005;48.844;10.098;2023-03-25T16:52:57;96058.22;;;11.61;55.05
48216;BME280;34005;48.844;10.098;2023-03-25T16:55:46;96073.50;;;11.58;54.97
48216;BME280;34005;48.844;10.098;2023-03-25T16:58:29;96057.22;;;11.55;55.01
48216;BME280;34005;48.844;10.098;2023-03-25T17:01:09;96072.69;;;11.50;52.14
48216;BME280;34005;48.844;10.098;2023-03-25T17:03:47;96078.91;;;11.49;53.42
48216;BME280;34005;48.844;10.098;2023-03-25T17:06:24;96078.72;;;11.44;53.39
48216;BME280;34005;48.844;10.098;2023-03-25T17:09:09;96102.41;;;11.36;52.26
48216;BME280;34005;48.844;10.098;2023-03-25T17:11:45;96082.09;;;11.31;53.94
48216;BME280;34005;48.844;10.098;2023-03-25T17:14:18;96089.53;;;11.28;54.40
48216;BME280;34005;48.844;10.098;2023-03-25T17:16:49;96088.72;;;11.21;52.53
48216;BME280;34005;48.844;10.098;2023-03-25T17:19:20;96092.53;;;11.18;53.32
48216;BME280;34005;48.844;10.098;2023-03-25T17:22:13;96085.09;;;11.15;52.04
48216;BME280;34005;48.844;10.098;2023-03-25T17:24:50;96096.09;;;11.10;51.85